createdAt,value
2022-09-09T00:01:26.518Z,1.67
2022-09-09T00:04:24.509Z,2.00
2022-09-09T00:07:26.173Z,2.38
2022-09-09T00:10:07.678Z,1.85
2022-09-09T00:15:37.962Z,2.33
2022-09-09T00:18:36.294Z,1.80
2022-09-09T00:21:09.685Z,2.03
2022-09-09T00:23:42.063Z,1.70
2022-09-09T00:26:45.684Z,1.40
2022-09-09T00:29:37.986Z,1.80
2022-09-09T00:32:22.117Z,1.42
2022-09-09T00:35:20.358Z,1.63
2022-09-09T00:37:52.158Z,1.77
2022-09-09T00:40:39.343Z,1.60
2022-09-09T00:43:23.249Z,1.70
2022-09-09T00:46:27.334Z,1.80
2022-09-09T00:49:26.489Z,2.28
2022-09-09T00:52:00.136Z,1.70
2022-09-09T00:54:42.070Z,2.22
2022-09-09T00:57:30.651Z,1.98
2022-09-09T01:00:22.330Z,2.00
2022-09-09T01:03:04.803Z,1.92
2022-09-09T01:05:35.558Z,2.22
2022-09-09T01:08:11.777Z,1.95
2022-09-09T01:10:55.539Z,2.05
2022-09-09T01:13:36.669Z,2.13
2022-09-09T01:16:13.605Z,2.03
2022-09-09T01:18:48.046Z,1.88
2022-09-09T01:21:54.099Z,1.88
2022-09-09T01:25:04.581Z,2.08
2022-09-09T01:28:02.367Z,2.05
2022-09-09T01:30:30.725Z,1.75
2022-09-09T01:33:02.433Z,2.08
2022-09-09T01:35:44.313Z,2.40
2022-09-09T01:38:12.720Z,1.70
2022-09-09T01:40:41.254Z,2.00
2022-09-09T01:43:09.517Z,1.70
2022-09-09T01:45:41.271Z,2.33
2022-09-09T01:48:09.727Z,2.00
2022-09-09T01:50:46.824Z,1.70
2022-09-09T01:53:18.062Z,1.95
2022-09-09T01:56:02.813Z,2.03
2022-09-09T01:58:50.061Z,2.00
2022-09-09T02:01:43.431Z,1.92
2022-09-09T02:04:40.519Z,2.00
2022-09-09T02:07:37.766Z,1.80
2022-09-09T02:10:19.627Z,2.10
2022-09-09T02:13:04.584Z,1.80
2022-09-09T02:15:39.188Z,1.77
2022-09-09T02:18:11.022Z,1.73
2022-09-09T02:20:40.385Z,1.90
2022-09-09T02:23:10.725Z,1.80
2022-09-09T02:25:42.349Z,1.88
2022-09-09T02:28:26.364Z,1.80
2022-09-09T02:30:57.225Z,1.83
2022-09-09T02:33:40.135Z,1.90
2022-09-09T02:36:11.839Z,1.73
2022-09-09T02:38:48.335Z,1.92
2022-09-09T02:41:17.122Z,1.92
2022-09-09T02:43:45.046Z,1.95
2022-09-09T02:46:32.022Z,1.70
2022-09-09T02:49:15.326Z,1.73
2022-09-09T02:51:55.223Z,1.77
2022-09-09T02:54:33.240Z,1.40
2022-09-09T02:57:07.829Z,1.90
2022-09-09T02:59:40.697Z,1.85
2022-09-09T03:02:08.901Z,1.75
2022-09-09T03:04:37.109Z,1.60
2022-09-09T03:07:06.549Z,1.25
2022-09-09T03:09:37.307Z,1.50
2022-09-09T03:12:06.436Z,1.45
2022-09-09T03:14:35.750Z,1.70
2022-09-09T03:17:04.463Z,1.50
2022-09-09T03:19:38.234Z,1.70
2022-09-09T03:22:15.210Z,1.70
2022-09-09T03:24:45.387Z,1.45
2022-09-09T03:27:13.358Z,1.75
2022-09-09T03:29:41.531Z,1.90
2022-09-09T03:32:14.401Z,1.88
2022-09-09T03:34:42.487Z,1.90
2022-09-09T03:37:13.224Z,1.77
2022-09-09T03:39:41.481Z,1.50
2022-09-09T03:42:10.837Z,1.70
2022-09-09T03:44:38.755Z,1.88
2022-09-09T03:47:08.365Z,1.60
2022-09-09T03:49:36.750Z,1.73
2022-09-09T03:52:04.654Z,1.60
2022-09-09T03:54:32.982Z,1.67
2022-09-09T03:57:00.895Z,1.73
2022-09-09T03:59:29.301Z,1.92
2022-09-09T04:01:59.295Z,1.50
2022-09-09T04:04:28.235Z,1.60
2022-09-09T04:06:57.150Z,1.45
2022-09-09T04:09:25.767Z,1.60
2022-09-09T04:11:55.182Z,1.80
2022-09-09T04:14:24.072Z,1.52
2022-09-09T04:16:52.118Z,2.10
2022-09-09T04:19:20.137Z,1.98
2022-09-09T04:21:48.134Z,1.35
2022-09-09T04:24:18.299Z,1.88
2022-09-09T04:26:47.477Z,1.38
2022-09-09T04:29:15.382Z,1.80
2022-09-09T04:31:44.059Z,1.90
2022-09-09T04:34:12.330Z,1.50
2022-09-09T04:36:42.461Z,1.60
2022-09-09T04:39:11.269Z,1.47
2022-09-09T04:41:40.722Z,1.80
2022-09-09T04:44:12.331Z,1.60
2022-09-09T04:46:40.894Z,2.25
2022-09-09T04:49:16.673Z,2.03
2022-09-09T04:51:45.431Z,1.73
2022-09-09T04:54:14.506Z,1.83
2022-09-09T04:56:45.366Z,1.70
2022-09-09T04:59:13.938Z,1.80
2022-09-09T05:01:46.580Z,1.95
2022-09-09T05:04:15.158Z,1.90
2022-09-09T05:06:44.290Z,1.60
2022-09-09T05:09:13.947Z,1.70
2022-09-09T05:11:41.869Z,1.73
2022-09-09T05:14:19.933Z,2.15
2022-09-09T05:16:49.155Z,1.80
2022-09-09T05:19:17.250Z,1.67
2022-09-09T05:24:19.953Z,1.90
2022-09-09T05:26:50.553Z,1.98
2022-09-09T05:29:21.103Z,2.00
2022-09-09T05:31:49.314Z,1.58
2022-09-09T05:34:22.771Z,1.50
2022-09-09T05:36:52.076Z,1.75
2022-09-09T05:39:21.905Z,1.85
2022-09-09T05:41:53.280Z,1.52
2022-09-09T05:46:51.799Z,2.30
2022-09-09T05:49:20.025Z,2.15
2022-09-09T05:51:50.150Z,1.60
2022-09-09T05:54:19.690Z,2.08
2022-09-09T05:59:21.929Z,1.60
2022-09-09T06:01:52.228Z,2.10
2022-09-09T06:04:32.536Z,1.55
2022-09-09T06:07:02.260Z,2.10
2022-09-09T06:09:32.510Z,1.95
2022-09-09T06:12:00.574Z,1.67
2022-09-09T06:14:29.319Z,2.00
2022-09-09T06:17:00.384Z,1.92
2022-09-09T06:19:34.038Z,1.55
2022-09-09T06:22:03.748Z,1.80
2022-09-09T06:24:35.227Z,1.75
2022-09-09T06:27:04.512Z,1.70
2022-09-09T06:29:35.769Z,1.52
2022-09-09T06:32:08.131Z,1.48
2022-09-09T06:34:38.581Z,1.48
2022-09-09T06:37:08.695Z,1.67
2022-09-09T06:39:45.005Z,1.80
2022-09-09T06:42:12.992Z,1.90
2022-09-09T06:45:01.133Z,1.52
2022-09-09T06:47:40.978Z,1.88
2022-09-09T06:50:10.096Z,1.70
2022-09-09T06:52:40.617Z,1.77
2022-09-09T06:55:10.783Z,1.35
2022-09-09T06:57:39.801Z,1.92
2022-09-09T07:00:19.907Z,1.40
2022-09-09T07:02:47.998Z,1.55
2022-09-09T07:05:17.426Z,1.65
2022-09-09T07:07:47.242Z,1.83
2022-09-09T07:10:17.548Z,1.30
2022-09-09T07:12:46.593Z,1.48
2022-09-09T07:15:16.203Z,1.65
2022-09-09T07:17:47.181Z,1.50
2022-09-09T07:20:17.944Z,0.90
2022-09-09T07:22:46.110Z,1.65
2022-09-09T07:25:14.348Z,1.10
2022-09-09T07:27:42.764Z,1.38
2022-09-09T07:30:14.799Z,1.25
2022-09-09T07:32:46.180Z,0.98
2022-09-09T07:35:14.613Z,1.20
2022-09-09T07:37:45.709Z,1.20
2022-09-09T07:40:15.967Z,1.00
2022-09-09T07:42:44.175Z,0.93
2022-09-09T07:45:12.972Z,1.17
2022-09-09T07:47:41.032Z,1.30
2022-09-09T07:50:11.311Z,1.25
2022-09-09T07:52:39.876Z,1.23
2022-09-09T07:55:09.179Z,1.23
2022-09-09T07:57:37.410Z,1.00
2022-09-09T08:00:06.791Z,1.17
2022-09-09T08:02:42.840Z,1.42
2022-09-09T08:05:15.360Z,1.02
2022-09-09T08:10:16.895Z,1.00
2022-09-09T08:13:01.404Z,1.08
2022-09-09T08:15:36.470Z,1.08
2022-09-09T08:18:06.448Z,1.10
2022-09-09T08:20:37.584Z,1.10
2022-09-09T08:23:06.946Z,1.00
2022-09-09T08:25:36.488Z,0.85
2022-09-09T08:28:05.744Z,1.00
2022-09-09T08:30:33.903Z,0.70
2022-09-09T08:33:02.083Z,0.85
2022-09-09T08:35:34.671Z,0.93
2022-09-09T08:38:06.584Z,0.98
2022-09-09T08:40:53.217Z,0.98
2022-09-09T08:43:25.031Z,0.80
2022-09-09T08:46:02.289Z,0.68
2022-09-09T08:48:46.226Z,0.98
2022-09-09T08:51:15.676Z,1.08
2022-09-09T08:53:49.801Z,1.00
2022-09-09T08:56:26.065Z,0.90
2022-09-09T08:58:59.390Z,0.93
2022-09-09T09:01:44.375Z,0.80
2022-09-09T09:04:25.416Z,0.70
2022-09-09T09:07:37.407Z,0.68
2022-09-09T09:10:42.543Z,0.70
2022-09-09T09:13:32.262Z,0.70
2022-09-09T09:16:19.445Z,0.85
2022-09-09T09:18:48.742Z,0.98
2022-09-09T09:21:23.695Z,1.00
2022-09-09T09:24:00.755Z,0.80
2022-09-09T09:26:37.191Z,0.60
2022-09-09T09:29:23.719Z,0.75
2022-09-09T09:31:57.592Z,0.82
2022-09-09T09:34:27.206Z,0.63
2022-09-09T09:37:04.903Z,0.80
2022-09-09T09:42:29.026Z,0.70
2022-09-09T09:45:22.918Z,0.77
2022-09-09T09:48:07.201Z,0.50
2022-09-09T09:50:57.203Z,1.17
2022-09-09T09:53:28.659Z,0.90
2022-09-09T09:56:02.102Z,0.63
2022-09-09T09:58:36.118Z,0.60
2022-09-09T10:01:04.751Z,0.70
2022-09-09T10:03:39.593Z,0.70
2022-09-09T10:06:08.168Z,0.60
2022-09-09T10:08:48.571Z,0.70
2022-09-09T10:11:35.279Z,0.95
2022-09-09T10:14:12.254Z,0.90
2022-09-09T10:16:49.090Z,0.60
2022-09-09T10:19:29.776Z,0.60
2022-09-09T10:22:06.528Z,0.95
2022-09-09T10:24:43.501Z,0.80
2022-09-09T10:27:27.441Z,0.70
2022-09-09T10:30:21.342Z,0.50
2022-09-09T10:33:07.709Z,1.05
2022-09-09T10:35:41.990Z,0.60
2022-09-09T10:38:17.687Z,0.57
2022-09-09T10:40:58.515Z,0.98
2022-09-09T10:43:36.592Z,0.80
2022-09-09T10:46:32.949Z,0.73
2022-09-09T10:49:26.393Z,0.50
2022-09-09T10:52:14.585Z,0.57
2022-09-09T10:55:12.383Z,0.80
2022-09-09T10:57:51.959Z,0.80
2022-09-09T11:00:48.373Z,0.60
2022-09-09T11:03:27.590Z,0.70
2022-09-09T11:06:10.587Z,0.68
2022-09-09T11:08:41.259Z,0.90
2022-09-09T11:11:37.591Z,0.77
2022-09-09T11:14:22.583Z,0.75
2022-09-09T11:17:02.582Z,0.90
2022-09-09T11:19:34.509Z,0.77
2022-09-09T11:22:27.622Z,0.82
2022-09-09T11:25:10.665Z,0.77
2022-09-09T11:28:17.540Z,0.90
2022-09-09T11:30:57.651Z,0.77
2022-09-09T11:34:10.503Z,0.88
2022-09-09T11:36:57.031Z,0.90
2022-09-09T11:39:48.597Z,0.80
2022-09-09T11:42:16.479Z,0.80
2022-09-09T11:44:44.814Z,0.50
2022-09-09T11:47:32.630Z,0.50
2022-09-09T11:50:30.107Z,0.70
2022-09-09T11:53:18.450Z,0.80
2022-09-09T11:55:46.739Z,0.73
2022-09-09T11:58:14.551Z,1.00
2022-09-09T12:00:48.773Z,0.90
2022-09-09T12:03:42.407Z,0.60
2022-09-09T12:06:22.098Z,0.75
2022-09-09T12:08:59.107Z,1.00
2022-09-09T12:11:33.182Z,0.65
2022-09-09T12:14:05.380Z,0.80
2022-09-09T12:16:41.252Z,0.50
2022-09-09T12:19:23.367Z,0.60
2022-09-09T12:22:36.242Z,0.50
2022-09-09T12:25:24.378Z,0.55
2022-09-09T12:28:18.713Z,0.65
2022-09-09T12:31:19.850Z,0.73
2022-09-09T12:33:49.532Z,0.80
2022-09-09T12:36:30.435Z,0.50
2022-09-09T12:39:12.567Z,1.05
2022-09-09T12:41:40.464Z,0.60
2022-09-09T12:44:12.334Z,0.50
2022-09-09T12:46:47.661Z,0.85
2022-09-09T12:49:40.425Z,0.75
2022-09-09T12:52:32.087Z,2.53
2022-09-09T12:55:02.832Z,1.08
2022-09-09T12:57:36.821Z,1.35
2022-09-09T13:00:19.270Z,1.73
2022-09-09T13:02:57.515Z,1.60
2022-09-09T13:05:31.701Z,1.40
2022-09-09T13:08:13.212Z,1.38
2022-09-09T13:10:55.422Z,1.52
2022-09-09T13:13:31.991Z,1.10
2022-09-09T13:16:02.233Z,1.17
2022-09-09T13:18:42.838Z,1.10
2022-09-09T13:21:11.075Z,0.90
2022-09-09T13:23:42.976Z,1.13
2022-09-09T13:26:27.874Z,1.00
2022-09-09T13:28:56.951Z,0.90
2022-09-09T13:31:37.965Z,0.85
2022-09-09T13:34:37.441Z,0.80
2022-09-09T13:37:13.113Z,0.60
2022-09-09T13:39:41.087Z,0.80
2022-09-09T13:42:27.426Z,1.00
2022-09-09T13:44:57.654Z,0.68
2022-09-09T13:47:33.435Z,0.70
2022-09-09T13:50:28.425Z,0.90
2022-09-09T13:53:00.318Z,0.70
2022-09-09T13:55:32.305Z,0.88
2022-09-09T13:58:07.683Z,0.60
2022-09-09T14:00:37.000Z,1.00
2022-09-09T14:03:05.229Z,0.80
2022-09-09T14:05:35.770Z,0.90
2022-09-09T14:08:06.729Z,1.00
2022-09-09T14:10:37.895Z,1.13
2022-09-09T14:15:33.666Z,0.77
2022-09-09T14:18:01.546Z,2.00
2022-09-09T14:20:29.410Z,1.38
2022-09-09T14:23:03.322Z,1.20
2022-09-09T14:25:31.584Z,1.30
2022-09-09T14:27:59.442Z,0.98
2022-09-09T14:30:27.291Z,1.00
2022-09-09T14:32:55.150Z,0.93
2022-09-09T14:35:24.299Z,0.80
2022-09-09T14:37:52.228Z,1.20
2022-09-09T14:40:20.078Z,1.20
2022-09-09T14:42:47.923Z,0.90
2022-09-09T14:45:15.832Z,0.82
2022-09-09T14:47:43.789Z,1.10
2022-09-09T14:50:12.353Z,0.82
2022-09-09T14:52:40.663Z,1.95
2022-09-09T14:55:09.369Z,3.05
2022-09-09T14:57:37.949Z,1.45
2022-09-09T15:00:09.776Z,1.85
2022-09-09T15:02:37.838Z,2.22
2022-09-09T15:05:06.492Z,0.88
2022-09-09T15:07:34.423Z,1.55
2022-09-09T15:10:02.314Z,1.40
2022-09-09T15:12:30.539Z,0.80
2022-09-09T15:14:58.413Z,0.90
2022-09-09T15:17:27.876Z,1.17
2022-09-09T15:19:56.624Z,1.67
2022-09-09T15:22:26.149Z,0.90
2022-09-09T15:24:54.126Z,0.90
2022-09-09T15:27:22.241Z,0.93
2022-09-09T15:29:52.422Z,0.73
2022-09-09T15:32:23.816Z,1.17
2022-09-09T15:34:53.431Z,1.10
2022-09-09T15:37:21.314Z,0.82
2022-09-09T15:39:50.162Z,0.70
2022-09-09T15:42:18.090Z,1.00
2022-09-09T15:44:46.114Z,1.00
2022-09-09T15:47:15.342Z,0.75
2022-09-09T15:49:43.334Z,0.45
2022-09-09T15:52:13.194Z,0.80
2022-09-09T15:54:41.299Z,0.47
2022-09-09T15:57:13.790Z,0.30
2022-09-09T15:59:42.318Z,0.60
2022-09-09T16:02:11.909Z,0.40
2022-09-09T16:04:39.972Z,0.50
2022-09-09T16:07:08.061Z,0.43
2022-09-09T16:09:37.158Z,0.40
2022-09-09T16:12:08.514Z,0.70
2022-09-09T16:14:37.830Z,0.40
2022-09-09T16:17:07.178Z,0.20
2022-09-09T16:19:36.657Z,0.40
2022-09-09T16:22:06.117Z,0.40
2022-09-09T16:24:34.364Z,0.63
2022-09-09T16:27:02.250Z,1.02
2022-09-09T16:29:30.146Z,1.35
2022-09-09T16:32:02.831Z,1.65
2022-09-09T16:34:31.993Z,1.20
2022-09-09T16:36:59.861Z,1.80
2022-09-09T16:39:27.870Z,1.67
2022-09-09T16:41:56.135Z,0.77
2022-09-09T16:44:24.363Z,1.33
2022-09-09T16:46:58.299Z,0.52
2022-09-09T16:49:30.772Z,0.52
2022-09-09T16:52:01.970Z,0.50
2022-09-09T16:56:59.760Z,0.60
2022-09-09T16:59:28.572Z,0.70
2022-09-09T17:01:56.743Z,0.30
2022-09-09T17:04:28.558Z,0.40
2022-09-09T17:06:57.881Z,0.40
2022-09-09T17:09:30.896Z,0.40
2022-09-09T17:11:58.998Z,0.30
2022-09-09T17:14:27.374Z,0.40
2022-09-09T17:16:55.380Z,0.30
2022-09-09T17:19:23.238Z,0.45
2022-09-09T17:22:16.901Z,0.47
2022-09-09T17:24:40.443Z,0.95
2022-09-09T17:27:08.867Z,0.70
2022-09-09T17:29:37.910Z,0.60
2022-09-09T17:32:07.403Z,0.60
2022-09-09T17:34:36.615Z,0.70
2022-09-09T17:37:06.444Z,0.60
2022-09-09T17:39:34.794Z,0.50
2022-09-09T17:42:02.706Z,0.40
2022-09-09T17:44:30.948Z,0.50
2022-09-09T17:46:58.917Z,0.70
2022-09-09T17:49:27.138Z,0.88
2022-09-09T17:51:55.974Z,0.77
2022-09-09T17:54:26.364Z,1.02
2022-09-09T17:56:54.675Z,0.60
2022-09-09T17:59:23.869Z,0.70
2022-09-09T18:01:52.187Z,0.80
2022-09-09T18:04:20.660Z,0.52
2022-09-09T18:06:50.826Z,0.50
2022-09-09T18:09:21.643Z,0.63
2022-09-09T18:11:51.722Z,0.75
2022-09-09T18:14:22.876Z,0.25
2022-09-09T18:16:51.129Z,0.40
2022-09-09T18:19:21.897Z,0.50
2022-09-09T18:21:56.394Z,0.60
2022-09-09T18:24:27.791Z,0.50
2022-09-09T18:26:56.333Z,0.77
2022-09-09T18:29:28.379Z,0.50
2022-09-09T18:31:57.226Z,0.73
2022-09-09T18:34:26.943Z,0.50
2022-09-09T18:36:56.941Z,1.02
2022-09-09T18:39:28.809Z,0.57
2022-09-09T18:42:03.623Z,0.60
2022-09-09T18:44:34.855Z,0.98
2022-09-09T18:47:08.911Z,0.80
2022-09-09T18:49:39.422Z,0.30
2022-09-09T18:52:10.966Z,0.30
2022-09-09T18:54:45.146Z,0.30
2022-09-09T18:57:13.599Z,0.30
2022-09-09T18:59:41.623Z,0.30
2022-09-09T19:02:13.264Z,0.30
2022-09-09T19:04:41.212Z,0.30
2022-09-09T19:07:09.050Z,0.13
2022-09-09T19:09:37.640Z,0.30
2022-09-09T19:12:06.827Z,0.30
2022-09-09T19:14:34.759Z,0.17
2022-09-09T19:17:02.711Z,0.40
2022-09-09T19:19:33.290Z,0.80
2022-09-09T19:22:02.715Z,1.67
2022-09-09T19:24:32.990Z,1.02
2022-09-09T19:27:03.887Z,0.30
2022-09-09T19:29:34.281Z,1.40
2022-09-09T19:32:51.572Z,0.80
2022-09-09T19:34:57.026Z,0.60
2022-09-09T19:37:26.915Z,0.40
2022-09-09T19:39:54.816Z,0.82
2022-09-09T19:42:22.749Z,0.80
2022-09-09T19:44:51.923Z,0.88
2022-09-09T19:47:20.543Z,0.63
2022-09-09T19:49:48.694Z,0.43
2022-09-09T19:52:17.984Z,0.93
2022-09-09T19:54:47.730Z,0.77
2022-09-09T19:57:15.816Z,0.95
2022-09-09T19:59:43.900Z,1.25
2022-09-09T20:02:16.340Z,2.03
2022-09-09T20:04:44.698Z,0.85
2022-09-09T20:07:12.754Z,0.88
2022-09-09T20:09:40.667Z,0.60
2022-09-09T20:12:08.617Z,0.60
2022-09-09T20:14:39.596Z,0.70
2022-09-09T20:19:36.177Z,1.00
2022-09-09T20:22:04.101Z,0.68
2022-09-09T20:24:31.962Z,0.50
2022-09-09T20:26:59.846Z,2.00
2022-09-09T20:29:27.714Z,1.20
2022-09-09T20:31:55.678Z,0.70
2022-09-09T20:34:27.006Z,0.60
2022-09-09T20:36:55.828Z,0.85
2022-09-09T20:39:24.119Z,0.70
2022-09-09T20:41:52.594Z,0.88
2022-09-09T20:44:25.232Z,0.77
2022-09-09T20:47:03.806Z,1.75
2022-09-09T20:49:34.510Z,0.60
2022-09-09T20:52:05.856Z,0.95
2022-09-09T20:54:34.610Z,0.70
2022-09-09T20:57:03.116Z,1.45
2022-09-09T20:59:35.806Z,0.73
2022-09-09T21:02:04.423Z,1.00
2022-09-09T21:04:32.512Z,1.95
2022-09-09T21:07:00.576Z,1.25
2022-09-09T21:09:28.442Z,0.80
2022-09-09T21:11:56.493Z,0.60
2022-09-09T21:14:24.923Z,0.50
2022-09-09T21:16:52.799Z,1.92
2022-09-09T21:22:01.482Z,0.82
2022-09-09T21:24:29.525Z,0.70
2022-09-09T21:26:57.710Z,1.10
2022-09-09T21:29:25.635Z,0.80
2022-09-09T21:31:57.012Z,0.65
2022-09-09T21:34:25.125Z,0.80
2022-09-09T21:36:53.016Z,1.10
2022-09-09T21:39:20.996Z,1.00
2022-09-09T21:41:49.381Z,1.30
2022-09-09T21:44:17.490Z,1.27
2022-09-09T21:46:45.468Z,0.90
2022-09-09T21:49:13.674Z,3.00
2022-09-09T21:51:41.604Z,4.07
2022-09-09T21:54:09.470Z,0.88
2022-09-09T21:56:37.759Z,0.98
2022-09-09T21:59:05.903Z,1.00
2022-09-09T22:01:36.901Z,1.25
2022-09-09T22:04:05.058Z,1.17
2022-09-09T22:06:32.898Z,1.08
2022-09-09T22:09:01.646Z,1.00
2022-09-09T22:11:30.830Z,1.48
2022-09-09T22:13:58.851Z,2.03
2022-09-09T22:16:26.999Z,0.70
2022-09-09T22:19:05.278Z,0.77
2022-09-09T22:21:34.334Z,0.80
2022-09-09T22:24:04.785Z,0.70
2022-09-09T22:26:35.788Z,0.70
2022-09-09T22:29:06.011Z,0.70
2022-09-09T22:31:34.993Z,0.80
2022-09-09T22:34:03.285Z,0.80
2022-09-09T22:36:32.863Z,0.73
2022-09-09T22:39:01.139Z,0.60
2022-09-09T22:41:31.069Z,0.57
2022-09-09T22:44:00.073Z,0.70
2022-09-09T22:46:28.079Z,0.70
2022-09-09T22:48:55.933Z,0.90
2022-09-09T22:51:23.835Z,0.70
2022-09-09T22:53:51.742Z,1.58
2022-09-09T22:56:21.213Z,0.90
2022-09-09T22:58:53.694Z,1.40
2022-09-09T23:01:21.992Z,1.52
2022-09-09T23:03:50.787Z,0.82
2022-09-09T23:06:27.901Z,0.90
2022-09-09T23:08:58.473Z,0.95
2022-09-09T23:11:32.662Z,1.87
2022-09-09T23:14:02.531Z,0.77
2022-09-09T23:16:40.675Z,0.90
2022-09-09T23:19:16.846Z,0.80
2022-09-09T23:21:47.277Z,1.30
2022-09-09T23:24:18.670Z,0.82
2022-09-09T23:29:16.118Z,1.05
2022-09-09T23:31:45.979Z,0.90
2022-09-09T23:34:14.105Z,0.90
2022-09-09T23:36:42.527Z,1.52
2022-09-09T23:39:12.296Z,0.90
2022-09-09T23:41:41.358Z,1.00
2022-09-09T23:44:09.564Z,1.23
2022-09-09T23:46:37.639Z,1.08
2022-09-09T23:49:06.096Z,0.95
2022-09-09T23:51:35.851Z,0.77
2022-09-09T23:54:05.838Z,0.70
2022-09-09T23:56:39.399Z,0.90
2022-09-09T23:59:08.334Z,1.35
